createdAt,value
2019-01-27T00:41:43.736Z,2.20
2019-01-27T00:44:12.175Z,1.93
2019-01-27T00:46:52.781Z,2.17
2019-01-27T00:57:32.089Z,1.70
2019-01-27T03:31:51.891Z,1.30
2019-01-27T08:50:49.936Z,0.70
2019-01-27T09:17:05.633Z,0.80
2019-01-27T09:19:48.656Z,0.90
2019-01-27T09:22:34.870Z,0.63
2019-01-27T09:25:12.291Z,0.70
2019-01-27T09:36:09.215Z,1.00
2019-01-27T09:38:45.551Z,0.90
2019-01-27T09:41:16.585Z,1.00
2019-01-27T09:43:46.892Z,0.93
2019-01-27T09:46:22.267Z,1.00
2019-01-27T09:48:57.419Z,0.93
2019-01-27T09:51:27.869Z,0.97
2019-01-27T09:54:00.671Z,1.30
2019-01-27T09:56:48.383Z,0.80
2019-01-27T09:59:22.780Z,0.87
2019-01-27T10:01:53.091Z,0.87
2019-01-27T10:04:24.803Z,1.00
2019-01-27T10:07:02.268Z,0.97
2019-01-27T10:09:50.499Z,0.87
2019-01-27T10:12:25.043Z,0.80
2019-01-27T10:14:59.995Z,0.87
2019-01-27T10:17:32.666Z,0.70
2019-01-27T10:28:33.505Z,1.00
2019-01-27T10:31:04.113Z,0.90
2019-01-27T10:36:20.545Z,0.80
2019-01-27T10:41:34.016Z,0.80
2019-01-27T10:46:44.616Z,1.10
2019-01-27T10:49:17.379Z,0.90
2019-01-27T10:51:48.736Z,0.70
2019-01-27T10:54:19.171Z,0.90
2019-01-27T11:10:28.755Z,0.90
2019-01-27T11:12:59.102Z,0.60
2019-01-27T11:15:36.843Z,0.97
2019-01-27T11:18:12.867Z,0.73
2019-01-27T11:21:00.043Z,0.90
2019-01-27T11:23:48.008Z,0.80
2019-01-27T11:26:36.244Z,0.53
2019-01-27T11:29:24.465Z,0.73
2019-01-27T11:31:59.732Z,0.67
2019-01-27T11:34:49.671Z,1.00
2019-01-27T11:37:24.330Z,0.90
2019-01-27T11:40:13.919Z,0.87
2019-01-27T11:42:50.127Z,0.83
2019-01-27T11:45:27.639Z,0.90
2019-01-27T11:48:02.024Z,0.83
2019-01-27T11:50:34.523Z,0.53
2019-01-27T11:53:04.143Z,0.90
2019-01-27T11:55:32.552Z,0.80
2019-01-27T11:58:01.534Z,0.70
2019-01-27T12:00:31.918Z,0.67
2019-01-27T12:03:00.351Z,0.80
2019-01-27T12:05:29.438Z,0.87
2019-01-27T12:07:58.846Z,0.80
2019-01-27T12:10:28.091Z,0.73
2019-01-27T12:12:58.119Z,0.90
2019-01-27T12:15:26.539Z,0.73
2019-01-27T12:17:54.958Z,0.80
2019-01-27T12:20:23.372Z,0.90
2019-01-27T12:25:31.754Z,1.00
2019-01-27T12:30:47.613Z,0.90
2019-01-27T12:33:18.471Z,0.80
2019-01-27T12:35:52.231Z,0.80
2019-01-27T12:38:20.979Z,0.80
2019-01-27T12:40:49.374Z,1.00
2019-01-27T12:43:19.164Z,0.90
2019-01-27T12:45:47.835Z,1.10
2019-01-27T12:48:16.255Z,1.20
2019-01-27T12:50:45.918Z,1.13
2019-01-27T12:53:15.978Z,0.83
2019-01-27T12:55:44.392Z,0.80
2019-01-27T12:58:12.812Z,1.03
2019-01-27T13:00:44.348Z,1.00
2019-01-27T13:03:15.882Z,1.10
2019-01-27T13:05:44.002Z,1.20
2019-01-27T13:08:12.447Z,0.93
2019-01-27T13:10:40.839Z,1.83
2019-01-27T13:13:12.086Z,1.40
2019-01-27T13:15:39.314Z,0.93
2019-01-27T13:18:08.284Z,0.90
2019-01-27T13:20:36.707Z,0.83
2019-01-27T13:23:05.119Z,1.00
2019-01-27T13:25:34.568Z,1.30
2019-01-27T13:28:02.959Z,1.13
2019-01-27T13:30:31.384Z,0.80
2019-01-27T13:33:03.267Z,0.80
2019-01-27T13:35:29.855Z,0.77
2019-01-27T13:37:59.638Z,1.00
2019-01-27T13:40:28.078Z,1.00
2019-01-27T13:42:56.473Z,1.00
2019-01-27T13:45:32.377Z,1.00
2019-01-27T13:48:01.110Z,0.67
2019-01-27T13:50:30.632Z,0.83
2019-01-27T13:53:01.939Z,1.00
2019-01-27T13:55:33.150Z,0.90
2019-01-27T13:58:01.623Z,0.70
2019-01-27T14:00:38.435Z,0.90
2019-01-27T14:03:06.953Z,0.80
2019-01-27T14:05:36.823Z,1.00
2019-01-27T14:08:05.454Z,0.93
2019-01-27T14:10:33.838Z,0.70
2019-01-27T14:13:02.400Z,0.70
2019-01-27T14:15:33.365Z,0.83
2019-01-27T14:18:03.701Z,1.00
2019-01-27T14:20:35.734Z,0.90
2019-01-27T14:23:04.798Z,0.90
2019-01-27T14:25:36.822Z,0.60
2019-01-27T14:28:06.553Z,0.80
2019-01-27T14:30:40.544Z,0.67
2019-01-27T14:33:09.265Z,0.97
2019-01-27T14:35:39.779Z,0.70
2019-01-27T14:38:08.196Z,0.80
2019-01-27T14:40:37.739Z,0.77
2019-01-27T14:43:06.917Z,0.67
2019-01-27T14:45:39.027Z,1.07
2019-01-27T14:48:07.801Z,0.83
2019-01-27T14:50:44.942Z,0.60
2019-01-27T14:53:13.381Z,0.87
2019-01-27T14:55:42.711Z,0.50
2019-01-27T14:58:11.454Z,0.80
2019-01-27T15:00:42.522Z,0.67
2019-01-27T15:03:12.946Z,0.60
2019-01-27T15:05:44.410Z,0.70
2019-01-27T15:08:13.642Z,0.90
2019-01-27T15:10:43.287Z,0.70
2019-01-27T15:13:12.990Z,0.73
2019-01-27T15:15:43.244Z,0.60
2019-01-27T15:18:11.661Z,1.00
2019-01-27T15:20:46.331Z,0.80
2019-01-27T15:23:14.739Z,0.70
2019-01-27T15:25:45.744Z,0.60
2019-01-27T15:28:21.551Z,0.80
2019-01-27T15:30:58.931Z,0.60
2019-01-27T15:33:27.890Z,0.70
2019-01-27T15:35:56.590Z,0.60
2019-01-27T15:38:32.658Z,0.80
2019-01-27T15:41:07.728Z,0.80
2019-01-27T15:43:39.372Z,0.80
2019-01-27T15:46:08.974Z,0.90
2019-01-27T15:48:39.019Z,0.80
2019-01-27T15:51:09.687Z,0.77
2019-01-27T15:53:39.711Z,0.70
2019-01-27T15:56:10.954Z,1.00
2019-01-27T15:58:39.619Z,1.00
2019-01-27T16:01:09.704Z,1.13
2019-01-27T16:03:44.261Z,1.10
2019-01-27T16:06:15.454Z,0.87
2019-01-27T16:08:44.655Z,0.90
2019-01-27T16:11:13.351Z,1.03
2019-01-27T16:13:41.886Z,0.80
2019-01-27T16:16:10.649Z,0.90
2019-01-27T16:18:39.077Z,0.70
2019-01-27T16:21:07.488Z,0.90
2019-01-27T16:23:41.868Z,0.80
2019-01-27T16:26:10.219Z,0.80
2019-01-27T16:28:38.642Z,0.90
2019-01-27T16:31:10.321Z,1.10
2019-01-27T16:33:40.718Z,0.87
2019-01-27T16:36:09.150Z,0.80
2019-01-27T16:38:37.578Z,1.10
2019-01-27T16:41:06.573Z,1.00
2019-01-27T16:43:36.113Z,0.80
2019-01-27T16:46:04.661Z,1.30
2019-01-27T16:48:35.810Z,0.97
2019-01-27T16:51:05.873Z,1.10
2019-01-27T16:53:34.279Z,1.10
2019-01-27T16:56:05.412Z,1.00
2019-01-27T16:58:35.339Z,0.90
2019-01-27T17:01:05.320Z,1.10
2019-01-27T17:03:37.402Z,735.83
2019-01-27T17:06:07.433Z,615.57
2019-01-27T17:08:37.879Z,825.00
2019-01-27T17:11:12.293Z,563.47
2019-01-27T17:13:45.828Z,423.50
2019-01-27T17:16:23.588Z,387.70
2019-01-27T17:18:54.958Z,333.10
2019-01-27T17:21:24.399Z,302.23
2019-01-27T17:23:54.447Z,275.47
2019-01-27T17:26:24.251Z,259.37
2019-01-27T17:28:54.396Z,237.40
2019-01-27T17:31:25.224Z,222.07
2019-01-27T17:33:53.666Z,214.90
2019-01-27T17:36:23.878Z,206.57
2019-01-27T17:38:52.853Z,190.23
2019-01-27T17:41:21.459Z,180.40
2019-01-27T17:43:49.818Z,175.07
2019-01-27T17:46:18.222Z,166.90
2019-01-27T17:48:47.459Z,159.70
2019-01-27T17:51:16.159Z,156.10
2019-01-27T17:53:50.381Z,146.67
2019-01-27T17:56:18.798Z,132.50
2019-01-27T17:58:54.411Z,124.30
2019-01-27T18:01:33.855Z,117.77
2019-01-27T18:04:03.937Z,107.93
2019-01-27T18:06:41.921Z,101.63
2019-01-27T18:09:17.862Z,93.60
2019-01-27T18:11:57.956Z,93.50
2019-01-27T18:14:28.032Z,88.27
2019-01-27T18:16:57.613Z,85.87
2019-01-27T18:19:26.330Z,79.97
2019-01-27T18:22:10.968Z,77.20
2019-01-27T18:24:42.351Z,74.70
2019-01-27T18:27:12.144Z,73.30
2019-01-27T18:29:41.939Z,70.00
2019-01-27T18:32:16.564Z,70.47
2019-01-27T18:34:48.396Z,66.80
2019-01-27T18:37:19.501Z,64.03
2019-01-27T18:39:47.971Z,63.23
2019-01-27T18:42:18.215Z,59.87
2019-01-27T18:44:46.622Z,61.43
2019-01-27T18:47:16.594Z,61.80
2019-01-27T18:49:49.481Z,59.27
2019-01-27T18:52:22.275Z,58.20
2019-01-27T18:54:58.559Z,58.70
2019-01-27T18:57:34.808Z,56.30
2019-01-27T19:05:52.931Z,55.30
2019-01-27T19:08:24.951Z,51.50
2019-01-27T19:11:20.513Z,48.93
2019-01-27T19:14:14.516Z,48.70
2019-01-27T19:17:02.493Z,47.50
2019-01-27T19:19:34.881Z,46.47
2019-01-27T19:22:08.367Z,46.30
2019-01-27T19:24:44.965Z,45.23
2019-01-27T19:27:32.158Z,46.03
2019-01-27T19:30:18.704Z,46.17
2019-01-27T19:33:11.124Z,48.30
2019-01-27T19:36:02.284Z,47.27
2019-01-27T19:38:43.264Z,45.20
2019-01-27T19:41:23.772Z,45.67
2019-01-27T19:43:58.394Z,44.27
2019-01-27T19:46:50.535Z,46.43
2019-01-27T19:49:37.735Z,45.27
2019-01-27T19:52:09.721Z,45.87
2019-01-27T19:54:39.918Z,43.03
2019-01-27T19:57:10.641Z,43.03
2019-01-27T19:59:41.305Z,41.57
2019-01-27T20:02:15.839Z,40.77
2019-01-27T20:04:48.021Z,41.97
2019-01-27T20:07:22.287Z,39.33
2019-01-27T20:10:08.385Z,39.10
2019-01-27T20:12:41.208Z,40.40
2019-01-27T20:15:29.489Z,39.17
2019-01-27T20:18:05.018Z,37.43
2019-01-27T20:20:52.494Z,38.00
2019-01-27T20:23:32.551Z,36.50
2019-01-27T20:26:27.551Z,38.07
2019-01-27T20:29:00.448Z,37.30
2019-01-27T20:31:52.615Z,37.23
2019-01-27T20:34:24.922Z,34.57
2019-01-27T20:36:58.429Z,35.20
2019-01-27T20:39:38.304Z,34.43
2019-01-27T20:42:15.678Z,34.30
2019-01-27T20:45:09.617Z,35.30
2019-01-27T20:48:15.117Z,35.40
2019-01-27T20:50:48.937Z,33.03
2019-01-27T20:53:31.852Z,34.03
2019-01-27T20:56:22.554Z,32.77
2019-01-27T20:58:54.385Z,32.53
2019-01-27T21:01:27.679Z,32.23
2019-01-27T21:04:03.862Z,31.67
2019-01-27T21:06:44.470Z,31.03
2019-01-27T21:09:16.708Z,33.03
2019-01-27T21:12:04.687Z,31.67
2019-01-27T21:14:46.349Z,31.03
2019-01-27T21:17:28.765Z,31.10
2019-01-27T21:20:22.776Z,30.60
2019-01-27T21:22:55.683Z,30.17
2019-01-27T21:25:28.813Z,29.27
2019-01-27T21:28:01.072Z,29.17
2019-01-27T21:30:36.232Z,29.70
2019-01-27T21:33:06.172Z,28.63
2019-01-27T21:35:37.004Z,29.90
2019-01-27T21:38:09.875Z,29.03
2019-01-27T21:40:43.088Z,26.73
2019-01-27T21:43:16.210Z,28.63
2019-01-27T21:45:56.869Z,27.67
2019-01-27T21:48:27.988Z,25.97
2019-01-27T21:51:06.001Z,27.27
2019-01-27T21:53:42.393Z,24.93
2019-01-27T21:56:12.464Z,25.53
2019-01-27T21:58:40.881Z,24.97
2019-01-27T22:01:10.116Z,26.70
2019-01-27T22:03:45.741Z,25.53
2019-01-27T22:06:13.707Z,24.23
2019-01-27T22:08:42.148Z,25.10
2019-01-27T22:11:14.311Z,24.80
2019-01-27T22:13:51.728Z,25.07
2019-01-27T22:16:26.548Z,25.00
2019-01-27T22:18:55.097Z,25.57
2019-01-27T22:21:23.812Z,23.73
2019-01-27T22:23:54.748Z,23.73
2019-01-27T22:26:26.750Z,22.73
2019-01-27T22:29:03.619Z,23.57
2019-01-27T22:31:39.548Z,23.20
2019-01-27T22:34:08.605Z,23.00
2019-01-27T22:36:38.297Z,21.13
2019-01-27T22:39:12.351Z,21.37
2019-01-27T22:41:44.152Z,21.43
2019-01-27T22:44:12.564Z,22.20
2019-01-27T22:46:41.115Z,20.50
2019-01-27T22:49:10.996Z,20.30
2019-01-27T22:51:43.168Z,21.17
2019-01-27T22:54:11.608Z,19.87
2019-01-27T22:56:40.693Z,20.23
2019-01-27T22:59:11.020Z,20.20
2019-01-27T23:01:40.183Z,19.97
2019-01-27T23:04:12.477Z,20.00
2019-01-27T23:06:47.014Z,19.27
2019-01-27T23:09:20.209Z,19.80
2019-01-27T23:11:52.029Z,19.00
2019-01-27T23:14:21.630Z,17.77
2019-01-27T23:16:51.571Z,19.13
2019-01-27T23:19:23.358Z,18.37
2019-01-27T23:21:51.776Z,18.60
2019-01-27T23:24:24.176Z,17.30
2019-01-27T23:26:54.112Z,17.60
2019-01-27T23:29:23.500Z,17.13
2019-01-27T23:31:51.914Z,16.17
2019-01-27T23:34:26.126Z,16.37
2019-01-27T23:36:58.519Z,17.17
2019-01-27T23:39:31.671Z,17.80
2019-01-27T23:42:03.047Z,17.10
2019-01-27T23:44:31.764Z,16.87
2019-01-27T23:47:09.653Z,15.83
2019-01-27T23:49:39.713Z,15.63
2019-01-27T23:52:14.198Z,16.37
2019-01-27T23:54:43.944Z,16.23
2019-01-27T23:57:19.565Z,15.57
2019-01-27T23:59:53.290Z,14.93
